Time;durP1;ratioP1;P1;durP2;ratioP2;P2;SDS_P1;SDS_P2;PMS_P1;PMS_P2;Temp;Humidity;BMP_temperature;BMP_pressure;BME280_temperature;BME280_humidity;BME280_pressure;Samples;Min_cycle;Max_cycle;Signal;HPM_P1;HPM_P2
2022/10/25 01:01:24;;;;;;;;;;;;;;;12.62;100.00;99887.72;3633587;33;28829;-78
2022/10/25 01:04:10;;;;;;;;;;;;;;;12.81;100.00;99896.50;4240324;33;35213;-79
2022/10/25 01:07:02;;;;;;;;;;;;;;;12.66;100.00;99907.94;4238431;33;34795;-78
2022/10/25 01:09:53;;;;;;;;;;;;;;;12.70;100.00;99900.69;4249610;33;33550;-79
2022/10/25 01:12:44;;;;;;;;;;;;;;;12.64;100.00;99904.72;4240591;33;34411;-78
2022/10/25 01:15:32;;;;;;;;;;;;;;;12.77;100.00;99899.06;4240086;33;35726;-79
2022/10/25 01:18:27;;;;;;;;;;;;;;;12.46;100.00;99896.38;4239858;33;33242;-78
2022/10/25 01:21:12;;;;;;;;;;;;;;;12.41;100.00;99899.28;4253388;33;32789;-78
2022/10/25 01:23:57;;;;;;;;;;;;;;;12.49;100.00;99892.97;4239024;33;34744;-77
2022/10/25 01:26:55;;;;;;;;;;;;;;;12.69;100.00;99882.53;4238684;33;35243;-78
2022/10/25 01:29:39;;;;;;;;;;;;;;;12.48;100.00;99891.38;4242808;33;33342;-79
2022/10/25 01:32:39;;;;;;;;;;;;;;;12.62;100.00;99887.72;4234844;33;33172;-78
2022/10/25 01:35:47;;;;;;;;;;;;;;;12.72;100.00;99884.66;4275411;33;34415;-78
2022/10/25 01:38:38;;;;;;;;;;;;;;;12.81;100.00;99888.25;4406313;32;35145;-78
2022/10/25 01:41:33;;;;;;;;;;;;;;;12.56;100.00;99874.09;4430059;32;34295;-78
2022/10/25 01:44:26;;;;;;;;;;;;;;;12.71;100.00;99885.78;4430729;32;34849;-78
2022/10/25 01:47:18;;;;;;;;;;;;;;;13.14;100.00;99885.06;4432852;32;34978;-78
2022/10/25 01:50:06;;;;;;;;;;;;;;;12.93;100.00;99885.69;4429722;32;35101;-78
2022/10/25 01:52:52;;;;;;;;;;;;;;;13.30;100.00;99878.00;4431683;32;34878;-78
2022/10/25 01:55:50;;;;;;;;;;;;;;;13.85;100.00;99880.06;4433847;32;33672;-78
2022/10/25 01:58:39;;;;;;;;;;;;;;;14.46;100.00;99884.56;4431168;32;34276;-78
2022/10/25 02:01:25;;;;;;;;;;;;;;;14.75;100.00;99876.34;4414095;32;36611;-78
2022/10/25 02:04:14;;;;;;;;;;;;;;;14.97;100.00;99863.41;4416898;32;34349;-78
2022/10/25 02:07:03;;;;;;;;;;;;;;;15.25;100.00;99864.50;4407074;32;35045;-78
2022/10/25 02:10:02;;;;;;;;;;;;;;;15.46;100.00;99858.97;4418103;32;35265;-78
2022/10/25 02:12:54;;;;;;;;;;;;;;;15.70;100.00;99872.09;4414131;32;35206;-78
2022/10/25 02:15:47;;;;;;;;;;;;;;;14.84;100.00;99877.09;4408868;32;34739;-78
2022/10/25 02:18:34;;;;;;;;;;;;;;;15.63;100.00;99869.06;4403822;32;34021;-78
2022/10/25 02:21:21;;;;;;;;;;;;;;;13.55;100.00;99872.78;4404574;32;34894;-77
2022/10/25 02:24:08;;;;;;;;;;;;;;;14.08;100.00;99874.34;4416947;32;36161;-77
2022/10/25 02:26:54;;;;;;;;;;;;;;;14.17;100.00;99864.09;4404282;32;35338;-77
2022/10/25 02:29:40;;;;;;;;;;;;;;;13.75;100.00;99861.13;4414905;32;34134;-77
2022/10/25 02:32:27;;;;;;;;;;;;;;;12.98;100.00;99869.03;4402151;32;35498;-77
2022/10/25 02:35:14;;;;;;;;;;;;;;;13.24;100.00;99849.00;4398912;32;36224;-78
2022/10/25 02:38:00;;;;;;;;;;;;;;;13.44;100.00;99853.88;4402309;32;34692;-79
2022/10/25 02:40:47;;;;;;;;;;;;;;;13.98;100.00;99849.91;4412176;32;34043;-77
2022/10/25 02:43:33;;;;;;;;;;;;;;;13.10;100.00;99848.34;4404458;32;34961;-78
2022/10/25 02:46:20;;;;;;;;;;;;;;;13.03;100.00;99857.91;4410595;32;34077;-78
2022/10/25 02:49:06;;;;;;;;;;;;;;;13.13;100.00;99870.50;4403917;32;34398;-77
2022/10/25 02:51:53;;;;;;;;;;;;;;;13.08;100.00;99883.62;4406891;32;34114;-78
2022/10/25 02:54:39;;;;;;;;;;;;;;;12.82;100.00;99884.38;4409189;32;34978;-78
2022/10/25 02:57:31;;;;;;;;;;;;;;;13.00;100.00;99877.75;4402533;32;34842;-78
2022/10/25 03:00:17;;;;;;;;;;;;;;;13.25;100.00;99886.37;4425847;32;34749;-78
2022/10/25 03:03:08;;;;;;;;;;;;;;;13.03;100.00;99888.16;4434645;32;33628;-77
2022/10/25 03:05:56;;;;;;;;;;;;;;;13.38;100.00;99881.91;4437521;32;34658;-77
2022/10/25 03:08:42;;;;;;;;;;;;;;;13.55;100.00;99875.56;4433481;32;35282;-78
2022/10/25 03:11:29;;;;;;;;;;;;;;;13.75;100.00;99880.41;4443484;32;35497;-78
2022/10/25 03:14:15;;;;;;;;;;;;;;;13.14;100.00;99885.06;4431631;32;34886;-77
2022/10/25 03:17:01;;;;;;;;;;;;;;;13.18;100.00;99895.13;4435273;32;35782;-77
2022/10/25 03:19:53;;;;;;;;;;;;;;;13.35;100.00;99901.78;4439277;32;36205;-78
2022/10/25 03:22:39;;;;;;;;;;;;;;;13.24;100.00;99896.59;4435401;32;35626;-78
2022/10/25 03:25:25;;;;;;;;;;;;;;;13.28;100.00;99883.00;4432743;32;33942;-78
2022/10/25 03:28:11;;;;;;;;;;;;;;;12.93;100.00;99888.44;4431185;32;35831;-78
2022/10/25 03:30:58;;;;;;;;;;;;;;;13.26;100.00;99885.25;4437102;32;35336;-78
2022/10/25 03:33:44;;;;;;;;;;;;;;;12.96;100.00;99892.50;4435455;32;34286;-78
2022/10/25 03:36:31;;;;;;;;;;;;;;;13.05;100.00;99902.37;4433665;32;35012;-77
2022/10/25 03:39:16;;;;;;;;;;;;;;;12.92;100.00;99903.34;4431401;32;35808;-78
2022/10/25 03:42:04;;;;;;;;;;;;;;;13.54;100.00;99893.22;4440544;32;34747;-77
2022/10/25 03:44:50;;;;;;;;;;;;;;;13.48;100.00;99890.62;4433975;32;34825;-78
2022/10/25 03:47:40;;;;;;;;;;;;;;;13.17;100.00;99903.69;4428675;32;32784;-77
2022/10/25 03:50:26;;;;;;;;;;;;;;;13.39;100.00;99906.31;4433993;32;35720;-77
2022/10/25 03:53:13;;;;;;;;;;;;;;;13.23;100.00;99894.13;4416800;32;35909;-77
2022/10/25 03:55:59;;;;;;;;;;;;;;;13.54;100.00;99879.44;4431940;32;34221;-78
2022/10/25 03:58:46;;;;;;;;;;;;;;;13.48;100.00;99865.84;4436013;32;34823;-78
2022/10/25 04:01:33;;;;;;;;;;;;;;;13.15;100.00;99870.19;4433771;32;34728;-78
2022/10/25 04:04:21;;;;;;;;;;;;;;;13.01;100.00;99871.16;4431356;32;36215;-78
2022/10/25 04:07:09;;;;;;;;;;;;;;;13.29;100.00;99868.12;4445113;32;34336;-77
2022/10/25 04:09:56;;;;;;;;;;;;;;;13.15;100.00;99878.44;4421664;32;34099;-78
2022/10/25 04:12:42;;;;;;;;;;;;;;;13.00;100.00;99875.00;4430762;32;34958;-80
2022/10/25 04:15:30;;;;;;;;;;;;;;;13.71;100.00;99871.97;4425777;32;35256;-80
2022/10/25 04:18:18;;;;;;;;;;;;;;;13.76;100.00;99876.50;4426027;32;34361;-81
2022/10/25 04:21:09;;;;;;;;;;;;;;;13.24;100.00;99871.81;4432490;32;34154;-81
2022/10/25 04:23:58;;;;;;;;;;;;;;;13.36;100.00;99876.69;4438072;32;36370;-81
2022/10/25 04:26:59;;;;;;;;;;;;;;;13.69;100.00;99876.22;4441981;32;34524;-82
2022/10/25 04:29:46;;;;;;;;;;;;;;;13.47;100.00;99880.75;4442313;32;34618;-82
2022/10/25 04:32:34;;;;;;;;;;;;;;;13.27;100.00;99881.41;4436288;32;34957;-82
2022/10/25 04:35:21;;;;;;;;;;;;;;;13.21;100.00;99882.66;4427776;32;34899;-83
2022/10/25 04:38:07;;;;;;;;;;;;;;;13.29;100.00;99879.16;4437517;32;35277;-83
2022/10/25 04:40:55;;;;;;;;;;;;;;;13.16;100.00;99880.06;4428276;32;34293;-81
2022/10/25 04:43:47;;;;;;;;;;;;;;;13.21;100.00;99888.16;4433766;32;33560;-82
2022/10/25 04:46:34;;;;;;;;;;;;;;;13.21;100.00;99888.16;4438332;32;34873;-81
2022/10/25 04:49:27;;;;;;;;;;;;;;;13.26;100.00;99890.78;4432470;32;35823;-81
2022/10/25 04:52:22;;;;;;;;;;;;;;;13.79;100.00;99884.13;4423798;32;35160;-82
2022/10/25 04:55:09;;;;;;;;;;;;;;;13.26;100.00;99885.25;4427953;32;33712;-83
2022/10/25 04:57:59;;;;;;;;;;;;;;;13.28;100.00;99894.81;4435003;32;34863;-83
2022/10/25 05:00:55;;;;;;;;;;;;;;;13.63;100.00;99894.00;4449542;32;36164;-81
2022/10/25 05:03:41;;;;;;;;;;;;;;;13.59;100.00;99890.31;4448397;32;34770;-82
2022/10/25 05:06:34;;;;;;;;;;;;;;;13.15;100.00;99894.94;4435152;32;34067;-81
2022/10/25 05:09:21;;;;;;;;;;;;;;;13.11;100.00;99900.28;4446294;32;33714;-81
2022/10/25 05:12:09;;;;;;;;;;;;;;;13.17;100.00;99900.94;4434816;32;35172;-81
2022/10/25 05:15:00;;;;;;;;;;;;;;;13.38;100.00;99906.66;4454578;32;35597;-81
2022/10/25 05:17:50;;;;;;;;;;;;;;;13.42;100.00;99889.16;4447088;32;34593;-81
2022/10/25 05:20:36;;;;;;;;;;;;;;;13.54;100.00;99888.50;4441938;32;34538;-81
2022/10/25 05:23:25;;;;;;;;;;;;;;;13.59;100.00;99890.31;4453482;32;34820;-81
2022/10/25 05:26:17;;;;;;;;;;;;;;;13.95;100.00;99903.72;4431152;32;35153;-81
2022/10/25 05:29:08;;;;;;;;;;;;;;;14.37;100.00;99904.72;4425327;32;33627;-81
2022/10/25 05:31:55;;;;;;;;;;;;;;;14.38;100.00;99917.37;4414797;32;34863;-81
2022/10/25 05:34:48;;;;;;;;;;;;;;;13.55;100.00;99930.59;4443409;32;36207;-81
2022/10/25 05:37:37;;;;;;;;;;;;;;;13.71;100.00;99937.25;4434686;32;35693;-81
2022/10/25 05:40:23;;;;;;;;;;;;;;;13.13;100.00;99942.03;4436806;32;34509;-83
2022/10/25 05:43:09;;;;;;;;;;;;;;;13.42;100.00;99954.41;4446033;32;34399;-82
2022/10/25 05:46:04;;;;;;;;;;;;;;;13.43;100.00;99967.88;4454783;32;34895;-81
2022/10/25 05:48:52;;;;;;;;;;;;;;;13.36;100.00;99981.28;4443433;32;34572;-82
2022/10/25 05:51:40;;;;;;;;;;;;;;;13.44;100.00;99991.50;4436473;32;34131;-82
2022/10/25 05:54:27;;;;;;;;;;;;;;;13.22;100.00;100005.34;4456304;32;34933;-82
2022/10/25 05:57:15;;;;;;;;;;;;;;;13.05;100.00;99990.41;4459741;32;35264;-81
2022/10/25 06:00:02;;;;;;;;;;;;;;;13.20;100.00;99996.59;4458660;32;34951;-81
2022/10/25 06:02:55;;;;;;;;;;;;;;;13.57;100.00;99986.16;4458613;32;34418;-80
2022/10/25 06:05:41;;;;;;;;;;;;;;;13.37;100.00;99990.34;4464908;32;35100;-81
2022/10/25 06:08:29;;;;;;;;;;;;;;;13.08;100.00;99980.69;4475265;32;35345;-81
2022/10/25 06:11:18;;;;;;;;;;;;;;;12.93;100.00;99995.69;4438534;32;35395;-83
2022/10/25 06:14:09;;;;;;;;;;;;;;;13.09;100.00;99995.25;4429706;32;34371;-80
2022/10/25 06:17:00;;;;;;;;;;;;;;;13.48;100.00;100008.19;4433668;32;34359;-81
2022/10/25 06:19:49;;;;;;;;;;;;;;;13.28;100.00;100015.09;4430144;32;34676;-87
2022/10/25 06:22:42;;;;;;;;;;;;;;;13.23;100.00;100010.53;4431904;32;34367;-83
2022/10/25 06:25:30;;;;;;;;;;;;;;;12.95;100.00;100020.13;4448336;32;34150;-84
2022/10/25 06:28:17;;;;;;;;;;;;;;;12.99;100.00;100035.69;4430782;32;34463;-81
2022/10/25 06:31:11;;;;;;;;;;;;;;;12.76;100.00;100034.13;4430135;32;36348;-82
2022/10/25 06:33:59;;;;;;;;;;;;;;;12.92;100.00;100040.00;4429670;32;35533;-82
2022/10/25 06:36:47;;;;;;;;;;;;;;;13.14;100.00;100039.94;4430925;32;33404;-81
2022/10/25 06:39:34;;;;;;;;;;;;;;;13.20;100.00;100041.41;4430265;32;34293;-80
2022/10/25 06:42:20;;;;;;;;;;;;;;;13.92;100.00;100040.16;4428817;32;35114;-80
2022/10/25 06:45:14;;;;;;;;;;;;;;;14.05;100.00;100032.03;4420268;32;34845;-81
2022/10/25 06:48:05;;;;;;;;;;;;;;;14.32;100.00;100036.41;4423896;32;33961;-80
2022/10/25 06:51:15;;;;;;;;;;;;;;;13.88;100.00;100043.84;4426816;32;34326;-80
2022/10/25 06:54:08;;;;;;;;;;;;;;;14.02;100.00;100043.72;4419911;32;34494;-81
2022/10/25 06:56:56;;;;;;;;;;;;;;;13.62;100.00;100039.12;4427832;32;34095;-83
2022/10/25 06:59:44;;;;;;;;;;;;;;;13.59;100.00;100038.97;4404035;32;34103;-84
2022/10/25 07:02:31;;;;;;;;;;;;;;;14.13;100.00;100034.78;4414850;32;35453;-84
2022/10/25 07:05:20;;;;;;;;;;;;;;;13.78;100.00;100022.97;4414056;32;34869;-82
2022/10/25 07:08:08;;;;;;;;;;;;;;;14.36;100.00;100021.62;4419740;32;34861;-84
2022/10/25 07:14:34;;;;;;;;;;;;;;;14.53;100.00;100028.28;4329321;33;33285;-80
2022/10/25 07:17:22;;;;;;;;;;;;;;;14.21;100.00;100041.44;4316051;33;34612;-82
2022/10/25 07:20:10;;;;;;;;;;;;;;;14.15;100.00;100037.22;4328074;33;34449;-81
2022/10/25 07:22:57;;;;;;;;;;;;;;;14.29;100.00;100032.34;4329105;33;33151;-81
2022/10/25 07:25:52;;;;;;;;;;;;;;;14.18;100.00;100036.56;4332460;32;35789;-87
2022/10/25 07:28:39;;;;;;;;;;;;;;;14.01;100.00;100050.37;4333531;32;36007;-88
2022/10/25 07:31:27;;;;;;;;;;;;;;;14.33;100.00;100044.34;4332270;32;33046;-86
2022/10/25 07:34:16;;;;;;;;;;;;;;;14.06;100.00;100053.78;4329410;32;32477;-84
2022/10/25 07:37:04;;;;;;;;;;;;;;;14.01;100.00;100059.44;4326913;33;34241;-82
2022/10/25 07:39:50;;;;;;;;;;;;;;;13.80;100.00;100062.00;4328431;33;35453;-82
2022/10/25 07:42:37;;;;;;;;;;;;;;;14.03;100.00;100059.09;4307859;32;34370;-83
2022/10/25 07:45:23;;;;;;;;;;;;;;;13.93;100.00;100057.47;4329397;32;33956;-81
2022/10/25 07:48:14;;;;;;;;;;;;;;;13.94;100.00;100062.69;4328941;32;35228;-83
2022/10/25 07:51:06;;;;;;;;;;;;;;;14.15;100.00;100071.09;4348068;32;35610;-85
2022/10/25 07:53:53;;;;;;;;;;;;;;;14.03;100.00;100070.94;4411118;32;34356;-84
2022/10/25 07:56:41;;;;;;;;;;;;;;;14.26;100.00;100068.00;4415024;32;33466;-84
2022/10/25 07:59:27;;;;;;;;;;;;;;;14.28;100.00;100077.56;4413746;32;36062;-85
2022/10/25 08:02:14;;;;;;;;;;;;;;;14.21;100.00;100080.03;4432919;32;36193;-87
2022/10/25 08:07:54;;;;;;;;;;;;;;;14.04;100.00;100080.03;4434134;32;34600;-87
2022/10/25 08:10:41;;;;;;;;;;;;;;;14.01;100.00;100080.66;4419486;32;35673;-84
2022/10/25 08:13:28;;;;;;;;;;;;;;;14.20;100.00;100078.38;4420396;32;35814;-84
2022/10/25 08:16:18;;;;;;;;;;;;;;;14.35;100.00;100077.91;4420290;32;34456;-84
2022/10/25 08:19:12;;;;;;;;;;;;;;;13.88;100.00;100072.22;4418583;32;34988;-84
2022/10/25 08:22:01;;;;;;;;;;;;;;;14.33;100.00;100077.41;4434198;32;34979;-83
2022/10/25 08:24:48;;;;;;;;;;;;;;;14.09;100.00;100079.88;4415518;32;36054;-83
2022/10/25 08:27:34;;;;;;;;;;;;;;;14.00;100.00;100079.84;4420243;32;34483;-86
2022/10/25 08:30:22;;;;;;;;;;;;;;;14.03;100.00;100072.88;4431606;32;33477;-85
2022/10/25 08:33:09;;;;;;;;;;;;;;;14.39;100.00;100070.59;4423207;32;35850;-83
2022/10/25 08:35:58;;;;;;;;;;;;;;;14.30;100.00;100071.75;4438009;32;36584;-85
2022/10/25 08:38:49;;;;;;;;;;;;;;;14.44;100.00;100072.38;4444996;32;34961;-85
2022/10/25 08:41:35;;;;;;;;;;;;;;;14.32;100.00;100080.50;4440144;32;34443;-84
2022/10/25 08:44:31;;;;;;;;;;;;;;;14.17;100.00;100085.38;4441928;32;34994;-85
2022/10/25 08:47:18;;;;;;;;;;;;;;;14.36;100.00;100089.75;4446679;32;35320;-86
2022/10/25 08:50:05;;;;;;;;;;;;;;;14.11;100.00;100083.09;4450718;32;34523;-85
2022/10/25 08:52:53;;;;;;;;;;;;;;;14.69;100.00;100086.50;4433591;32;34077;-84
2022/10/25 08:55:41;;;;;;;;;;;;;;;14.30;100.00;100093.78;4434052;32;34559;-85
2022/10/25 08:58:50;;;;;;;;;;;;;;;14.72;100.00;100094.91;4435702;32;34817;-85
2022/10/25 09:01:43;;;;;;;;;;;;;;;14.52;100.00;100101.13;4417230;32;35643;-84
2022/10/25 09:04:30;;;;;;;;;;;;;;;14.39;100.00;100108.37;4417798;32;33543;-85
2022/10/25 09:07:17;;;;;;;;;;;;;;;14.43;100.00;100103.84;4426659;32;36432;-87
2022/10/25 09:10:21;;;;;;;;;;;;;;;14.26;100.00;100109.34;4422954;32;35237;-86
2022/10/25 09:13:25;;;;;;;;;;;;;;;14.36;100.00;100109.84;4419308;32;35168;-86
2022/10/25 09:16:23;;;;;;;;;;;;;;;14.70;100.00;100102.69;4425657;32;34858;-84
2022/10/25 09:19:24;;;;;;;;;;;;;;;14.38;100.00;100107.56;4426079;32;34993;-84
2022/10/25 09:22:18;;;;;;;;;;;;;;;14.29;100.00;100108.72;4428307;32;35873;-82
2022/10/25 09:25:06;;;;;;;;;;;;;;;14.59;100.00;100115.22;4424082;32;34534;-83
2022/10/25 09:27:56;;;;;;;;;;;;;;;14.30;100.00;100113.91;4423784;32;33613;-84
2022/10/25 09:30:46;;;;;;;;;;;;;;;14.30;100.00;100116.66;4428695;32;35024;-83
2022/10/25 09:33:38;;;;;;;;;;;;;;;14.47;100.00;100092.97;4423700;32;34701;-84
2022/10/25 09:36:26;;;;;;;;;;;;;;;14.47;100.00;100104.81;4433370;32;34948;-85
2022/10/25 09:39:24;;;;;;;;;;;;;;;14.49;100.00;100110.00;4423103;32;34894;-85
2022/10/25 09:42:29;;;;;;;;;;;;;;;14.47;100.00;100112.28;4425633;32;34948;-82
2022/10/25 09:45:20;;;;;;;;;;;;;;;14.81;100.00;100105.94;4425985;32;35216;-84
2022/10/25 09:48:16;;;;;;;;;;;;;;;14.50;100.00;100112.44;4418885;32;34364;-82
2022/10/25 09:51:17;;;;;;;;;;;;;;;14.49;100.00;100107.25;4416227;32;33654;-82
2022/10/25 09:54:14;;;;;;;;;;;;;;;14.64;100.00;100120.56;4420688;32;35409;-83
2022/10/25 09:57:07;;;;;;;;;;;;;;;14.78;100.00;100115.66;4416668;32;36005;-83
2022/10/25 10:00:04;;;;;;;;;;;;;;;14.85;100.00;100118.72;4435690;32;35977;-81
2022/10/25 10:02:58;;;;;;;;;;;;;;;14.85;100.00;100127.00;4445429;32;34901;-80
2022/10/25 10:05:57;;;;;;;;;;;;;;;15.04;100.00;100128.59;4421767;32;35380;-81
2022/10/25 10:08:50;;;;;;;;;;;;;;;14.61;100.00;100137.75;4436973;32;35047;-81
2022/10/25 10:11:37;;;;;;;;;;;;;;;14.55;100.00;100139.06;4438237;32;34945;-80
2022/10/25 10:14:35;;;;;;;;;;;;;;;14.98;100.00;100129.91;4433820;32;34501;-79
2022/10/25 10:17:22;;;;;;;;;;;;;;;14.90;100.00;100127.97;4438976;32;35763;-79
2022/10/25 10:20:14;;;;;;;;;;;;;;;15.20;100.00;100129.69;4422777;32;35182;-80
2022/10/25 10:23:02;;;;;;;;;;;;;;;15.22;100.00;100130.16;4430009;32;35693;-80
2022/10/25 10:25:55;;;;;;;;;;;;;;;15.10;100.00;100121.75;4442081;32;33570;-80
2022/10/25 10:29:03;;;;;;;;;;;;;;;15.49;100.00;100119.81;4444863;32;34642;-80
2022/10/25 10:31:55;;;;;;;;;;;;;;;15.88;100.00;100118.66;4431778;32;34921;-81
2022/10/25 10:34:43;;;;;;;;;;;;;;;15.21;100.00;100119.44;4435692;32;35654;-79
2022/10/25 10:37:30;;;;;;;;;;;;;;;15.67;100.00;100121.34;4433045;32;33626;-79
2022/10/25 10:40:19;;;;;;;;;;;;;;;15.34;100.00;100123.13;4445923;32;35049;-80
2022/10/25 10:43:23;;;;;;;;;;;;;;;15.58;100.00;100115.06;4448487;32;36160;-81
2022/10/25 10:46:16;;;;;;;;;;;;;;;15.62;100.00;100116.00;4447729;32;34696;-80
2022/10/25 10:49:09;;;;;;;;;;;;;;;16.26;100.00;100119.69;4436981;32;33699;-80
2022/10/25 10:52:01;;;;;;;;;;;;;;;15.30;100.00;100109.97;4449126;32;35206;-80
2022/10/25 10:54:49;;;;;;;;;;;;;;;15.81;100.00;100115.63;4437889;32;34800;-80
2022/10/25 10:57:36;;;;;;;;;;;;;;;15.66;100.00;100121.69;4450297;32;34904;-80
2022/10/25 11:00:23;;;;;;;;;;;;;;;15.09;100.00;100130.38;4429710;32;34760;-80
2022/10/25 11:03:34;;;;;;;;;;;;;;;15.38;100.00;100132.37;4427035;32;35726;-78
2022/10/25 11:06:26;;;;;;;;;;;;;;;15.66;100.00;100133.53;4423851;32;36119;-78
2022/10/25 11:12:21;;;;;;;;;;;;;;;15.42;100.00;100123.09;4438700;32;33726;-83
2022/10/25 11:15:13;;;;;;;;;;;;;;;15.60;100.00;100117.50;4421317;32;34969;-85
2022/10/25 11:18:02;;;;;;;;;;;;;;;16.12;100.00;100118.00;4419870;32;34003;-84
2022/10/25 11:20:58;;;;;;;;;;;;;;;15.89;100.00;100119.47;4433553;32;35526;-86
2022/10/25 11:23:53;;;;;;;;;;;;;;;16.45;100.00;100113.66;4431942;32;34221;-83
2022/10/25 11:30:06;;;;;;;;;;;;;;;16.36;100.00;100122.03;4402951;32;35545;-81
2022/10/25 11:33:00;;;;;;;;;;;;;;;15.80;100.00;100121.50;4424124;32;34406;-80
2022/10/25 11:35:58;;;;;;;;;;;;;;;16.01;100.00;100124.28;4431610;32;33942;-79
2022/10/25 11:39:02;;;;;;;;;;;;;;;16.66;100.00;100125.53;4421817;32;35775;-79
2022/10/25 11:42:01;;;;;;;;;;;;;;;17.17;100.00;100111.53;4427412;32;35170;-78
2022/10/25 11:45:23;;;;;;;;;;;;;;;17.19;100.00;100109.19;4428819;32;35759;-80
2022/10/25 11:48:09;;;;;;;;;;;;;;;17.12;100.00;100103.44;4422218;32;33635;-80
2022/10/25 11:50:57;;;;;;;;;;;;;;;17.39;100.00;100100.00;4416293;32;35664;-83
2022/10/25 11:53:56;;;;;;;;;;;;;;;17.62;98.02;100105.09;4425716;32;35221;-82
2022/10/25 11:59:57;;;;;;;;;;;;;;;18.06;89.21;100100.53;4428130;32;34305;-83
2022/10/25 12:02:59;;;;;;;;;;;;;;;18.16;85.41;100105.63;4433337;32;35420;-84
2022/10/25 12:08:48;;;;;;;;;;;;;;;18.10;87.03;100103.41;4439515;32;34665;-79
2022/10/25 12:11:42;;;;;;;;;;;;;;;18.33;87.12;100101.75;4453792;32;32775;-80
2022/10/25 12:14:31;;;;;;;;;;;;;;;18.90;83.90;100094.25;4438746;32;35510;-80
2022/10/25 12:17:25;;;;;;;;;;;;;;;18.40;85.18;100095.59;4442726;32;33938;-81
2022/10/25 12:23:25;;;;;;;;;;;;;;;18.71;81.03;100116.28;4429915;32;34233;-80
2022/10/25 12:26:32;;;;;;;;;;;;;;;18.35;81.48;100115.25;4449664;32;34923;-84
2022/10/25 12:29:20;;;;;;;;;;;;;;;18.11;83.13;100100.31;4438523;32;35816;-81
2022/10/25 12:32:15;;;;;;;;;;;;;;;18.50;81.77;100110.91;4434236;32;34485;-82
2022/10/25 12:35:09;;;;;;;;;;;;;;;18.53;80.22;100105.50;4435560;32;33552;-80
2022/10/25 12:37:59;;;;;;;;;;;;;;;18.80;79.92;100111.41;4440870;32;35821;-80
2022/10/25 12:40:48;;;;;;;;;;;;;;;18.59;81.34;100109.62;4440506;32;35187;-82
2022/10/25 12:44:04;;;;;;;;;;;;;;;18.70;81.35;100112.72;4442828;32;34825;-79
2022/10/25 12:47:28;;;;;;;;;;;;;;;19.20;80.70;100114.06;4446180;32;34982;-83
2022/10/25 12:50:22;;;;;;;;;;;;;;;18.61;83.58;100112.03;4449926;32;34408;-79
2022/10/25 12:53:25;;;;;;;;;;;;;;;18.69;83.34;100102.75;4448721;32;35310;-80
2022/10/25 12:56:18;;;;;;;;;;;;;;;18.78;82.41;100108.97;4450400;32;34683;-79
2022/10/25 13:02:36;;;;;;;;;;;;;;;18.75;85.60;100104.13;4446583;32;34544;-84
2022/10/25 13:05:44;;;;;;;;;;;;;;;18.34;86.92;100110.88;4445327;32;35575;-81
2022/10/25 13:08:31;;;;;;;;;;;;;;;18.47;86.54;100103.31;4441757;32;34886;-82
2022/10/25 13:11:18;;;;;;;;;;;;;;;18.25;88.20;100105.47;4430714;32;33639;-82
2022/10/25 13:14:12;;;;;;;;;;;;;;;18.24;88.02;100114.94;4432333;32;34948;-84
2022/10/25 13:17:14;;;;;;;;;;;;;;;18.25;87.48;100111.03;4416212;32;34459;-82
2022/10/25 13:20:21;;;;;;;;;;;;;;;18.01;86.36;100117.41;4455898;32;34814;-81
2022/10/25 13:23:45;;;;;;;;;;;;;;;18.42;85.63;100121.81;4446550;32;34883;-79
2022/10/25 13:26:53;;;;;;;;;;;;;;;18.68;83.96;100106.69;4410510;32;34845;-79
2022/10/25 13:30:02;;;;;;;;;;;;;;;18.92;81.78;100116.09;4439538;32;36370;-78
2022/10/25 13:33:10;;;;;;;;;;;;;;;19.76;78.63;100111.09;4451538;32;35691;-79
2022/10/25 13:36:01;;;;;;;;;;;;;;;19.31;79.78;100122.66;4443041;32;33733;-78
2022/10/25 13:39:02;;;;;;;;;;;;;;;19.23;78.98;100115.31;4446658;32;35400;-78
2022/10/25 13:41:54;;;;;;;;;;;;;;;19.43;78.98;100125.34;4447554;32;34975;-80
2022/10/25 13:44:54;;;;;;;;;;;;;;;19.85;77.00;100119.25;4434667;32;34877;-78
2022/10/25 13:47:46;;;;;;;;;;;;;;;19.27;77.55;100132.91;4437428;32;34113;-78
2022/10/25 13:50:41;;;;;;;;;;;;;;;19.65;75.08;100121.16;4421693;32;35435;-81
2022/10/25 13:53:37;;;;;;;;;;;;;;;18.88;77.70;100133.47;4444051;32;34895;-78
2022/10/25 13:56:24;;;;;;;;;;;;;;;19.89;72.50;100124.87;4440953;32;35210;-79
2022/10/25 13:59:37;;;;;;;;;;;;;;;19.64;72.90;100130.66;4452848;32;34069;-78
2022/10/25 14:02:33;;;;;;;;;;;;;;;19.82;72.32;100119.16;4452540;32;35083;-80
2022/10/25 14:05:32;;;;;;;;;;;;;;;19.44;74.44;100126.16;4435353;32;34731;-77
2022/10/25 14:08:25;;;;;;;;;;;;;;;20.11;72.92;100120.62;4454235;32;34840;-78
2022/10/25 14:11:13;;;;;;;;;;;;;;;19.79;74.55;100125.47;4445966;32;34061;-78
2022/10/25 14:14:37;;;;;;;;;;;;;;;19.20;76.01;100132.69;4456165;32;34826;-78
2022/10/25 14:20:39;;;;;;;;;;;;;;;19.72;73.51;100129.69;4439406;32;35226;-80
2022/10/25 14:23:29;;;;;;;;;;;;;;;20.09;72.91;100122.94;4438103;32;34967;-83
2022/10/25 14:26:20;;;;;;;;;;;;;;;19.47;73.79;100136.56;4430944;32;34503;-81
2022/10/25 14:32:20;;;;;;;;;;;;;;;20.85;69.16;100138.09;4437513;32;34292;-81
2022/10/25 14:35:11;;;;;;;;;;;;;;;20.51;70.47;100141.75;4444858;32;34942;-81
2022/10/25 14:38:14;;;;;;;;;;;;;;;19.89;71.47;100136.00;4427100;32;34825;-81
2022/10/25 14:41:18;;;;;;;;;;;;;;;19.81;71.85;100134.22;4444746;32;34714;-83
2022/10/25 14:47:31;;;;;;;;;;;;;;;20.19;68.42;100136.31;4440227;32;33970;-81
2022/10/25 14:50:25;;;;;;;;;;;;;;;20.24;68.43;100135.22;4456406;32;35827;-81
2022/10/25 14:53:25;;;;;;;;;;;;;;;19.68;70.85;100142.69;4452027;32;36118;-81
2022/10/25 14:56:20;;;;;;;;;;;;;;;19.35;71.33;100147.75;4437198;32;34799;-81
2022/10/25 14:59:25;;;;;;;;;;;;;;;19.57;70.98;100130.47;4449102;32;35115;-82
2022/10/25 15:05:28;;;;;;;;;;;;;;;19.92;69.62;100140.84;4430551;32;36117;-81
2022/10/25 15:08:25;;;;;;;;;;;;;;;19.54;70.94;100142.28;4424667;32;34763;-80
2022/10/25 15:11:21;;;;;;;;;;;;;;;19.16;73.58;100138.16;4441000;32;34572;-81
2022/10/25 15:14:19;;;;;;;;;;;;;;;19.40;71.32;100131.63;4449638;32;35007;-81
2022/10/25 15:17:16;;;;;;;;;;;;;;;19.00;73.61;100134.56;4428803;32;34715;-82
2022/10/25 15:20:15;;;;;;;;;;;;;;;18.58;76.53;100138.53;4429909;32;34856;-81
2022/10/25 15:23:05;;;;;;;;;;;;;;;17.72;79.97;100137.88;4442063;32;32724;-79
2022/10/25 15:25:56;;;;;;;;;;;;;;;18.53;76.61;100138.78;4429333;32;35370;-81
2022/10/25 15:29:00;;;;;;;;;;;;;;;17.94;79.07;100140.19;4444893;32;35232;-82
2022/10/25 15:31:46;;;;;;;;;;;;;;;17.05;84.70;100151.88;4451304;32;35604;-83
2022/10/25 15:40:37;;;;;;;;;;;;;;;18.01;80.28;100147.09;4452347;32;34804;-82
2022/10/25 15:43:33;;;;;;;;;;;;;;;17.33;83.90;100154.00;4439307;32;33491;-82
2022/10/25 15:46:31;;;;;;;;;;;;;;;18.02;81.26;100151.53;4445324;32;34873;-82
2022/10/25 15:49:21;;;;;;;;;;;;;;;17.09;85.35;100150.03;4443030;32;35752;-83
2022/10/25 15:52:17;;;;;;;;;;;;;;;17.78;82.91;100147.59;4454069;32;35185;-82
2022/10/25 15:55:18;;;;;;;;;;;;;;;18.16;80.68;100151.97;4452581;32;34828;-82
2022/10/25 15:58:08;;;;;;;;;;;;;;;17.45;83.79;100150.44;4421550;32;34872;-81
2022/10/25 16:01:22;;;;;;;;;;;;;;;17.82;83.10;100158.81;4422636;32;34857;-78
2022/10/25 16:04:27;;;;;;;;;;;;;;;16.57;89.94;100150.50;4426887;32;34979;-79
2022/10/25 16:07:33;;;;;;;;;;;;;;;18.16;82.24;100157.50;4428848;32;33040;-79
2022/10/25 16:10:32;;;;;;;;;;;;;;;18.57;79.66;100158.31;4428404;32;35382;-78
2022/10/25 16:13:25;;;;;;;;;;;;;;;18.38;80.08;100148.66;4433103;32;34812;-78
2022/10/25 16:16:22;;;;;;;;;;;;;;;18.61;79.33;100156.44;4433163;32;34720;-78
2022/10/25 16:19:23;;;;;;;;;;;;;;;18.77;78.26;100168.44;4416872;32;34037;-78
2022/10/25 16:22:19;;;;;;;;;;;;;;;18.70;78.11;100171.00;4430542;32;34816;-79
2022/10/25 16:25:15;;;;;;;;;;;;;;;18.58;78.73;100168.25;4415939;32;33728;-78